sensor_id;sensor_type;location;lat;lon;timestamp;P1;durP1;ratioP1;P2;durP2;ratioP2
37593;SDS011;23441;50.856;6.076;2023-04-12T00:01:58;7.15;;;1.85;;
37593;SDS011;23441;50.856;6.076;2023-04-12T00:04:25;5.55;;;1.58;;
37593;SDS011;23441;50.856;6.076;2023-04-12T00:06:52;4.35;;;1.60;;
37593;SDS011;23441;50.856;6.076;2023-04-12T00:09:18;3.30;;;1.38;;
37593;SDS011;23441;50.856;6.076;2023-04-12T00:11:44;7.45;;;1.65;;
37593;SDS011;23441;50.856;6.076;2023-04-12T00:14:10;4.32;;;1.60;;
37593;SDS011;23441;50.856;6.076;2023-04-12T00:16:36;5.03;;;1.77;;
37593;SDS011;23441;50.856;6.076;2023-04-12T00:19:03;7.35;;;1.42;;
37593;SDS011;23441;50.856;6.076;2023-04-12T00:21:29;7.75;;;1.65;;
37593;SDS011;23441;50.856;6.076;2023-04-12T00:23:55;6.55;;;1.70;;
37593;SDS011;23441;50.856;6.076;2023-04-12T00:26:20;2.92;;;1.85;;
37593;SDS011;23441;50.856;6.076;2023-04-12T00:28:46;7.18;;;1.67;;
37593;SDS011;23441;50.856;6.076;2023-04-12T00:31:12;7.68;;;1.55;;
37593;SDS011;23441;50.856;6.076;2023-04-12T00:33:38;4.72;;;1.63;;
37593;SDS011;23441;50.856;6.076;2023-04-12T00:36:03;4.55;;;1.33;;
37593;SDS011;23441;50.856;6.076;2023-04-12T00:38:29;4.03;;;1.50;;
37593;SDS011;23441;50.856;6.076;2023-04-12T00:40:55;4.28;;;1.48;;
37593;SDS011;23441;50.856;6.076;2023-04-12T00:43:20;3.72;;;1.45;;
37593;SDS011;23441;50.856;6.076;2023-04-12T00:45:47;4.93;;;1.45;;
37593;SDS011;23441;50.856;6.076;2023-04-12T00:48:14;4.65;;;1.30;;
37593;SDS011;23441;50.856;6.076;2023-04-12T00:50:40;3.78;;;1.40;;
37593;SDS011;23441;50.856;6.076;2023-04-12T00:53:08;5.80;;;1.92;;
37593;SDS011;23441;50.856;6.076;2023-04-12T00:55:37;2.05;;;1.38;;
37593;SDS011;23441;50.856;6.076;2023-04-12T00:58:07;4.78;;;1.30;;
37593;SDS011;23441;50.856;6.076;2023-04-12T01:00:33;2.75;;;1.20;;
37593;SDS011;23441;50.856;6.076;2023-04-12T01:02:59;4.15;;;1.20;;
37593;SDS011;23441;50.856;6.076;2023-04-12T01:05:28;4.05;;;1.40;;
37593;SDS011;23441;50.856;6.076;2023-04-12T01:10:55;3.97;;;1.50;;
37593;SDS011;23441;50.856;6.076;2023-04-12T01:16:30;2.33;;;1.17;;
37593;SDS011;23441;50.856;6.076;2023-04-12T01:19:03;4.10;;;1.50;;
37593;SDS011;23441;50.856;6.076;2023-04-12T01:21:40;4.07;;;1.35;;
37593;SDS011;23441;50.856;6.076;2023-04-12T01:27:02;2.35;;;1.40;;
37593;SDS011;23441;50.856;6.076;2023-04-12T01:29:37;3.40;;;1.40;;
37593;SDS011;23441;50.856;6.076;2023-04-12T01:32:04;3.13;;;1.67;;
37593;SDS011;23441;50.856;6.076;2023-04-12T01:34:32;3.78;;;1.27;;
37593;SDS011;23441;50.856;6.076;2023-04-12T01:37:00;6.22;;;1.38;;
37593;SDS011;23441;50.856;6.076;2023-04-12T01:39:28;3.80;;;1.40;;
37593;SDS011;23441;50.856;6.076;2023-04-12T01:41:56;3.05;;;1.60;;
37593;SDS011;23441;50.856;6.076;2023-04-12T01:44:21;3.08;;;1.15;;
37593;SDS011;23441;50.856;6.076;2023-04-12T01:46:47;4.70;;;1.63;;
37593;SDS011;23441;50.856;6.076;2023-04-12T01:49:14;3.85;;;1.48;;
37593;SDS011;23441;50.856;6.076;2023-04-12T01:54:11;3.72;;;1.77;;
37593;SDS011;23441;50.856;6.076;2023-04-12T01:56:40;1.80;;;1.23;;
37593;SDS011;23441;50.856;6.076;2023-04-12T01:59:11;4.25;;;1.85;;
37593;SDS011;23441;50.856;6.076;2023-04-12T02:01:39;5.10;;;1.67;;
37593;SDS011;23441;50.856;6.076;2023-04-12T02:04:05;3.55;;;1.42;;
37593;SDS011;23441;50.856;6.076;2023-04-12T02:06:33;5.75;;;1.50;;
37593;SDS011;23441;50.856;6.076;2023-04-12T02:09:01;2.63;;;1.30;;
37593;SDS011;23441;50.856;6.076;2023-04-12T02:11:28;5.70;;;1.42;;
37593;SDS011;23441;50.856;6.076;2023-04-12T02:13:53;5.65;;;1.30;;
37593;SDS011;23441;50.856;6.076;2023-04-12T02:16:19;3.40;;;1.20;;
37593;SDS011;23441;50.856;6.076;2023-04-12T02:18:47;3.58;;;1.40;;
37593;SDS011;23441;50.856;6.076;2023-04-12T02:21:14;3.05;;;1.23;;
37593;SDS011;23441;50.856;6.076;2023-04-12T02:23:39;1.05;;;0.90;;
37593;SDS011;23441;50.856;6.076;2023-04-12T02:26:08;3.60;;;2.08;;
37593;SDS011;23441;50.856;6.076;2023-04-12T02:28:35;1.63;;;0.88;;
37593;SDS011;23441;50.856;6.076;2023-04-12T02:31:01;1.45;;;1.05;;
37593;SDS011;23441;50.856;6.076;2023-04-12T02:33:27;2.97;;;0.95;;
37593;SDS011;23441;50.856;6.076;2023-04-12T02:35:53;2.88;;;1.02;;
37593;SDS011;23441;50.856;6.076;2023-04-12T02:38:20;2.88;;;1.20;;
37593;SDS011;23441;50.856;6.076;2023-04-12T02:40:45;2.58;;;0.93;;
37593;SDS011;23441;50.856;6.076;2023-04-12T02:43:11;2.22;;;1.10;;
37593;SDS011;23441;50.856;6.076;2023-04-12T02:45:37;1.33;;;1.00;;
37593;SDS011;23441;50.856;6.076;2023-04-12T02:48:02;1.42;;;0.77;;
37593;SDS011;23441;50.856;6.076;2023-04-12T02:50:29;1.55;;;0.88;;
37593;SDS011;23441;50.856;6.076;2023-04-12T02:52:55;2.50;;;1.02;;
37593;SDS011;23441;50.856;6.076;2023-04-12T02:55:20;1.50;;;0.80;;
37593;SDS011;23441;50.856;6.076;2023-04-12T02:57:46;1.67;;;0.98;;
37593;SDS011;23441;50.856;6.076;2023-04-12T03:00:12;2.63;;;1.20;;
37593;SDS011;23441;50.856;6.076;2023-04-12T03:02:42;1.77;;;1.10;;
37593;SDS011;23441;50.856;6.076;2023-04-12T03:05:08;2.88;;;1.10;;
37593;SDS011;23441;50.856;6.076;2023-04-12T03:07:34;2.22;;;1.10;;
37593;SDS011;23441;50.856;6.076;2023-04-12T03:10:00;1.08;;;0.75;;
37593;SDS011;23441;50.856;6.076;2023-04-12T03:12:26;2.35;;;1.05;;
37593;SDS011;23441;50.856;6.076;2023-04-12T03:14:52;1.90;;;1.00;;
37593;SDS011;23441;50.856;6.076;2023-04-12T03:17:18;1.88;;;0.80;;
37593;SDS011;23441;50.856;6.076;2023-04-12T03:19:44;2.92;;;0.90;;
37593;SDS011;23441;50.856;6.076;2023-04-12T03:22:10;1.30;;;0.80;;
37593;SDS011;23441;50.856;6.076;2023-04-12T03:24:36;4.03;;;1.05;;
37593;SDS011;23441;50.856;6.076;2023-04-12T03:27:02;2.80;;;0.93;;
37593;SDS011;23441;50.856;6.076;2023-04-12T03:29:29;2.72;;;1.08;;
37593;SDS011;23441;50.856;6.076;2023-04-12T03:31:56;2.70;;;1.10;;
37593;SDS011;23441;50.856;6.076;2023-04-12T03:34:25;1.63;;;0.80;;
37593;SDS011;23441;50.856;6.076;2023-04-12T03:36:56;2.30;;;1.02;;
37593;SDS011;23441;50.856;6.076;2023-04-12T03:39:22;1.33;;;0.93;;
37593;SDS011;23441;50.856;6.076;2023-04-12T03:41:48;1.17;;;1.00;;
37593;SDS011;23441;50.856;6.076;2023-04-12T03:44:14;1.48;;;0.98;;
37593;SDS011;23441;50.856;6.076;2023-04-12T03:46:39;2.20;;;1.10;;
37593;SDS011;23441;50.856;6.076;2023-04-12T03:49:05;0.80;;;0.70;;
37593;SDS011;23441;50.856;6.076;2023-04-12T03:51:30;0.80;;;0.80;;
37593;SDS011;23441;50.856;6.076;2023-04-12T03:53:56;3.40;;;1.20;;
37593;SDS011;23441;50.856;6.076;2023-04-12T03:56:22;1.08;;;0.75;;
37593;SDS011;23441;50.856;6.076;2023-04-12T03:58:47;4.30;;;1.10;;
37593;SDS011;23441;50.856;6.076;2023-04-12T04:01:13;1.25;;;0.70;;
37593;SDS011;23441;50.856;6.076;2023-04-12T04:03:41;2.17;;;1.00;;
37593;SDS011;23441;50.856;6.076;2023-04-12T04:06:09;2.03;;;0.90;;
37593;SDS011;23441;50.856;6.076;2023-04-12T04:08:36;0.80;;;0.80;;
37593;SDS011;23441;50.856;6.076;2023-04-12T04:11:01;1.33;;;0.90;;
37593;SDS011;23441;50.856;6.076;2023-04-12T04:13:27;1.67;;;0.90;;
37593;SDS011;23441;50.856;6.076;2023-04-12T04:16:00;1.90;;;1.05;;
37593;SDS011;23441;50.856;6.076;2023-04-12T04:18:28;2.10;;;0.90;;
37593;SDS011;23441;50.856;6.076;2023-04-12T04:20:54;3.17;;;0.90;;
37593;SDS011;23441;50.856;6.076;2023-04-12T04:23:19;1.50;;;0.80;;
37593;SDS011;23441;50.856;6.076;2023-04-12T04:25:46;1.17;;;0.90;;
37593;SDS011;23441;50.856;6.076;2023-04-12T04:28:11;1.92;;;0.98;;
37593;SDS011;23441;50.856;6.076;2023-04-12T04:30:39;0.75;;;0.75;;
37593;SDS011;23441;50.856;6.076;2023-04-12T04:33:05;0.88;;;0.80;;
37593;SDS011;23441;50.856;6.076;2023-04-12T04:35:32;1.60;;;0.95;;
37593;SDS011;23441;50.856;6.076;2023-04-12T04:37:58;2.33;;;0.98;;
37593;SDS011;23441;50.856;6.076;2023-04-12T04:40:25;0.73;;;0.70;;
37593;SDS011;23441;50.856;6.076;2023-04-12T04:42:51;0.93;;;0.93;;
37593;SDS011;23441;50.856;6.076;2023-04-12T04:45:21;2.05;;;0.82;;
37593;SDS011;23441;50.856;6.076;2023-04-12T04:47:50;0.82;;;0.80;;
37593;SDS011;23441;50.856;6.076;2023-04-12T04:50:22;1.02;;;0.93;;
37593;SDS011;23441;50.856;6.076;2023-04-12T04:52:49;1.70;;;0.80;;
37593;SDS011;23441;50.856;6.076;2023-04-12T04:55:15;2.13;;;0.88;;
37593;SDS011;23441;50.856;6.076;2023-04-12T04:57:48;1.23;;;0.82;;
37593;SDS011;23441;50.856;6.076;2023-04-12T05:00:14;1.00;;;0.90;;
37593;SDS011;23441;50.856;6.076;2023-04-12T05:02:40;0.77;;;0.70;;
37593;SDS011;23441;50.856;6.076;2023-04-12T05:05:10;0.60;;;0.60;;
37593;SDS011;23441;50.856;6.076;2023-04-12T05:07:37;0.95;;;0.80;;
37593;SDS011;23441;50.856;6.076;2023-04-12T05:10:03;2.63;;;0.80;;
37593;SDS011;23441;50.856;6.076;2023-04-12T05:12:30;2.45;;;0.90;;
37593;SDS011;23441;50.856;6.076;2023-04-12T05:14:56;0.98;;;0.80;;
37593;SDS011;23441;50.856;6.076;2023-04-12T05:17:21;0.90;;;0.80;;
37593;SDS011;23441;50.856;6.076;2023-04-12T05:19:47;0.73;;;0.70;;
37593;SDS011;23441;50.856;6.076;2023-04-12T05:22:13;0.77;;;0.70;;
37593;SDS011;23441;50.856;6.076;2023-04-12T05:24:38;1.52;;;0.93;;
37593;SDS011;23441;50.856;6.076;2023-04-12T05:27:04;0.73;;;0.70;;
37593;SDS011;23441;50.856;6.076;2023-04-12T05:29:30;0.57;;;0.55;;
37593;SDS011;23441;50.856;6.076;2023-04-12T05:31:57;0.88;;;0.60;;
37593;SDS011;23441;50.856;6.076;2023-04-12T05:34:22;1.00;;;0.77;;
37593;SDS011;23441;50.856;6.076;2023-04-12T05:36:48;0.80;;;0.70;;
37593;SDS011;23441;50.856;6.076;2023-04-12T05:39:14;1.60;;;0.88;;
37593;SDS011;23441;50.856;6.076;2023-04-12T05:41:40;2.00;;;0.65;;
37593;SDS011;23441;50.856;6.076;2023-04-12T05:44:06;1.00;;;0.70;;
37593;SDS011;23441;50.856;6.076;2023-04-12T05:46:31;1.77;;;0.70;;
37593;SDS011;23441;50.856;6.076;2023-04-12T05:48:57;2.88;;;1.00;;
37593;SDS011;23441;50.856;6.076;2023-04-12T05:51:23;0.85;;;0.70;;
37593;SDS011;23441;50.856;6.076;2023-04-12T05:53:48;0.88;;;0.88;;
37593;SDS011;23441;50.856;6.076;2023-04-12T05:56:14;0.82;;;0.70;;
37593;SDS011;23441;50.856;6.076;2023-04-12T05:58:40;1.65;;;0.80;;
37593;SDS011;23441;50.856;6.076;2023-04-12T06:01:06;0.93;;;0.80;;
37593;SDS011;23441;50.856;6.076;2023-04-12T06:03:31;1.42;;;0.75;;
37593;SDS011;23441;50.856;6.076;2023-04-12T06:05:57;0.73;;;0.73;;
37593;SDS011;23441;50.856;6.076;2023-04-12T06:08:23;1.85;;;0.70;;
37593;SDS011;23441;50.856;6.076;2023-04-12T06:10:48;0.77;;;0.77;;
37593;SDS011;23441;50.856;6.076;2023-04-12T06:13:14;1.02;;;0.65;;
37593;SDS011;23441;50.856;6.076;2023-04-12T06:15:40;1.05;;;0.60;;
37593;SDS011;23441;50.856;6.076;2023-04-12T06:18:06;2.35;;;0.70;;
37593;SDS011;23441;50.856;6.076;2023-04-12T06:20:32;1.25;;;0.80;;
37593;SDS011;23441;50.856;6.076;2023-04-12T06:22:57;1.08;;;0.77;;
37593;SDS011;23441;50.856;6.076;2023-04-12T06:25:23;0.88;;;0.88;;
37593;SDS011;23441;50.856;6.076;2023-04-12T06:27:49;0.95;;;0.73;;
37593;SDS011;23441;50.856;6.076;2023-04-12T06:30:14;0.80;;;0.80;;
37593;SDS011;23441;50.856;6.076;2023-04-12T06:32:40;0.63;;;0.63;;
37593;SDS011;23441;50.856;6.076;2023-04-12T06:35:06;1.23;;;0.75;;
37593;SDS011;23441;50.856;6.076;2023-04-12T06:37:33;0.65;;;0.65;;
37593;SDS011;23441;50.856;6.076;2023-04-12T06:39:58;1.00;;;0.90;;
37593;SDS011;23441;50.856;6.076;2023-04-12T06:42:24;1.90;;;0.80;;
37593;SDS011;23441;50.856;6.076;2023-04-12T06:44:50;0.98;;;0.80;;
37593;SDS011;23441;50.856;6.076;2023-04-12T06:47:15;1.65;;;0.93;;
37593;SDS011;23441;50.856;6.076;2023-04-12T06:49:41;0.60;;;0.60;;
37593;SDS011;23441;50.856;6.076;2023-04-12T06:52:06;0.70;;;0.70;;
37593;SDS011;23441;50.856;6.076;2023-04-12T06:54:35;0.63;;;0.63;;
37593;SDS011;23441;50.856;6.076;2023-04-12T06:57:01;0.60;;;0.60;;
37593;SDS011;23441;50.856;6.076;2023-04-12T06:59:27;1.17;;;0.70;;
37593;SDS011;23441;50.856;6.076;2023-04-12T07:01:53;0.68;;;0.68;;
37593;SDS011;23441;50.856;6.076;2023-04-12T07:04:19;1.15;;;0.82;;
37593;SDS011;23441;50.856;6.076;2023-04-12T07:06:45;1.17;;;0.70;;
37593;SDS011;23441;50.856;6.076;2023-04-12T07:09:10;1.88;;;0.70;;
37593;SDS011;23441;50.856;6.076;2023-04-12T07:11:36;0.60;;;0.60;;
37593;SDS011;23441;50.856;6.076;2023-04-12T07:14:02;1.70;;;0.80;;
37593;SDS011;23441;50.856;6.076;2023-04-12T07:16:28;0.70;;;0.68;;
37593;SDS011;23441;50.856;6.076;2023-04-12T07:18:58;0.73;;;0.70;;
37593;SDS011;23441;50.856;6.076;2023-04-12T07:21:24;1.23;;;1.08;;
37593;SDS011;23441;50.856;6.076;2023-04-12T07:23:51;1.33;;;0.90;;
37593;SDS011;23441;50.856;6.076;2023-04-12T07:26:17;1.50;;;0.77;;
37593;SDS011;23441;50.856;6.076;2023-04-12T07:28:43;1.17;;;0.82;;
37593;SDS011;23441;50.856;6.076;2023-04-12T07:31:09;1.35;;;0.93;;
37593;SDS011;23441;50.856;6.076;2023-04-12T07:33:35;0.90;;;0.90;;
37593;SDS011;23441;50.856;6.076;2023-04-12T07:36:01;0.60;;;0.60;;
37593;SDS011;23441;50.856;6.076;2023-04-12T07:38:27;1.10;;;0.65;;
37593;SDS011;23441;50.856;6.076;2023-04-12T07:40:53;0.70;;;0.70;;
37593;SDS011;23441;50.856;6.076;2023-04-12T07:43:20;2.42;;;0.80;;
37593;SDS011;23441;50.856;6.076;2023-04-12T07:45:45;0.55;;;0.55;;
37593;SDS011;23441;50.856;6.076;2023-04-12T07:48:11;1.00;;;0.50;;
37593;SDS011;23441;50.856;6.076;2023-04-12T07:50:37;2.28;;;0.70;;
37593;SDS011;23441;50.856;6.076;2023-04-12T07:53:21;0.57;;;0.57;;
37593;SDS011;23441;50.856;6.076;2023-04-12T07:55:48;0.68;;;0.65;;
37593;SDS011;23441;50.856;6.076;2023-04-12T07:58:14;0.70;;;0.70;;
37593;SDS011;23441;50.856;6.076;2023-04-12T08:00:42;1.38;;;0.60;;
37593;SDS011;23441;50.856;6.076;2023-04-12T08:03:09;2.30;;;0.68;;
37593;SDS011;23441;50.856;6.076;2023-04-12T08:05:38;0.85;;;0.60;;
37593;SDS011;23441;50.856;6.076;2023-04-12T08:08:04;0.60;;;0.60;;
37593;SDS011;23441;50.856;6.076;2023-04-12T08:10:31;0.52;;;0.52;;
37593;SDS011;23441;50.856;6.076;2023-04-12T08:12:57;0.60;;;0.57;;
37593;SDS011;23441;50.856;6.076;2023-04-12T08:15:23;0.60;;;0.50;;
37593;SDS011;23441;50.856;6.076;2023-04-12T08:17:49;0.60;;;0.60;;
37593;SDS011;23441;50.856;6.076;2023-04-12T08:20:14;1.00;;;0.70;;
37593;SDS011;23441;50.856;6.076;2023-04-12T08:22:41;0.80;;;0.80;;
37593;SDS011;23441;50.856;6.076;2023-04-12T08:25:07;0.80;;;0.80;;
37593;SDS011;23441;50.856;6.076;2023-04-12T08:27:33;2.80;;;0.70;;
37593;SDS011;23441;50.856;6.076;2023-04-12T08:29:58;0.90;;;0.70;;
37593;SDS011;23441;50.856;6.076;2023-04-12T08:32:24;1.15;;;0.65;;
37593;SDS011;23441;50.856;6.076;2023-04-12T08:34:50;0.60;;;0.60;;
37593;SDS011;23441;50.856;6.076;2023-04-12T08:37:16;0.75;;;0.70;;
37593;SDS011;23441;50.856;6.076;2023-04-12T08:39:42;0.90;;;0.73;;
37593;SDS011;23441;50.856;6.076;2023-04-12T08:42:08;0.70;;;0.70;;
37593;SDS011;23441;50.856;6.076;2023-04-12T08:44:35;0.63;;;0.63;;
37593;SDS011;23441;50.856;6.076;2023-04-12T08:47:05;0.60;;;0.60;;
37593;SDS011;23441;50.856;6.076;2023-04-12T08:49:32;1.30;;;0.70;;
37593;SDS011;23441;50.856;6.076;2023-04-12T08:52:02;0.70;;;0.70;;
37593;SDS011;23441;50.856;6.076;2023-04-12T08:54:31;1.05;;;0.80;;
37593;SDS011;23441;50.856;6.076;2023-04-12T08:57:03;1.38;;;1.10;;
37593;SDS011;23441;50.856;6.076;2023-04-12T08:59:31;1.00;;;0.90;;
37593;SDS011;23441;50.856;6.076;2023-04-12T09:02:00;2.90;;;1.00;;
37593;SDS011;23441;50.856;6.076;2023-04-12T09:04:26;0.90;;;0.90;;
37593;SDS011;23441;50.856;6.076;2023-04-12T09:06:52;1.23;;;1.10;;
37593;SDS011;23441;50.856;6.076;2023-04-12T09:09:17;2.80;;;1.30;;
37593;SDS011;23441;50.856;6.076;2023-04-12T09:11:43;4.25;;;1.38;;
37593;SDS011;23441;50.856;6.076;2023-04-12T09:14:21;2.05;;;1.10;;
37593;SDS011;23441;50.856;6.076;2023-04-12T09:16:49;2.35;;;1.35;;
37593;SDS011;23441;50.856;6.076;2023-04-12T09:19:15;6.03;;;1.90;;
37593;SDS011;23441;50.856;6.076;2023-04-12T09:21:54;4.32;;;1.80;;
37593;SDS011;23441;50.856;6.076;2023-04-12T09:24:20;3.95;;;2.33;;
37593;SDS011;23441;50.856;6.076;2023-04-12T09:27:10;8.15;;;2.00;;
37593;SDS011;23441;50.856;6.076;2023-04-12T09:29:35;7.43;;;3.15;;
37593;SDS011;23441;50.856;6.076;2023-04-12T09:32:04;13.32;;;2.60;;
37593;SDS011;23441;50.856;6.076;2023-04-12T09:34:32;8.77;;;2.47;;
37593;SDS011;23441;50.856;6.076;2023-04-12T09:37:10;8.73;;;2.95;;
37593;SDS011;23441;50.856;6.076;2023-04-12T09:39:37;8.45;;;2.47;;
37593;SDS011;23441;50.856;6.076;2023-04-12T09:42:10;8.88;;;2.20;;
37593;SDS011;23441;50.856;6.076;2023-04-12T09:44:37;9.23;;;2.42;;
37593;SDS011;23441;50.856;6.076;2023-04-12T09:47:03;11.55;;;2.88;;
37593;SDS011;23441;50.856;6.076;2023-04-12T09:49:39;5.78;;;1.92;;
37593;SDS011;23441;50.856;6.076;2023-04-12T09:52:10;5.35;;;1.60;;
37593;SDS011;23441;50.856;6.076;2023-04-12T09:54:37;5.68;;;1.95;;
37593;SDS011;23441;50.856;6.076;2023-04-12T09:57:05;4.97;;;1.70;;
37593;SDS011;23441;50.856;6.076;2023-04-12T09:59:31;6.22;;;1.85;;
37593;SDS011;23441;50.856;6.076;2023-04-12T10:02:03;4.70;;;1.50;;
37593;SDS011;23441;50.856;6.076;2023-04-12T10:04:35;7.82;;;1.90;;
37593;SDS011;23441;50.856;6.076;2023-04-12T10:07:03;7.57;;;2.00;;
37593;SDS011;23441;50.856;6.076;2023-04-12T10:09:29;5.25;;;2.33;;
37593;SDS011;23441;50.856;6.076;2023-04-12T10:11:55;6.53;;;1.83;;
37593;SDS011;23441;50.856;6.076;2023-04-12T10:14:23;8.52;;;2.22;;
37593;SDS011;23441;50.856;6.076;2023-04-12T10:16:52;5.35;;;2.50;;
37593;SDS011;23441;50.856;6.076;2023-04-12T10:19:21;5.75;;;1.55;;
37593;SDS011;23441;50.856;6.076;2023-04-12T10:21:49;9.95;;;2.03;;
37593;SDS011;23441;50.856;6.076;2023-04-12T10:24:14;9.85;;;1.90;;
37593;SDS011;23441;50.856;6.076;2023-04-12T10:26:41;4.75;;;1.80;;
37593;SDS011;23441;50.856;6.076;2023-04-12T10:29:26;7.53;;;1.90;;
37593;SDS011;23441;50.856;6.076;2023-04-12T10:34:49;7.15;;;1.80;;
37593;SDS011;23441;50.856;6.076;2023-04-12T10:37:20;9.82;;;2.13;;
37593;SDS011;23441;50.856;6.076;2023-04-12T10:39:52;7.45;;;2.00;;
37593;SDS011;23441;50.856;6.076;2023-04-12T10:42:19;10.27;;;1.88;;
37593;SDS011;23441;50.856;6.076;2023-04-12T10:44:49;6.78;;;2.13;;
37593;SDS011;23441;50.856;6.076;2023-04-12T10:47:16;7.60;;;1.60;;
37593;SDS011;23441;50.856;6.076;2023-04-12T10:55:37;5.85;;;1.88;;
37593;SDS011;23441;50.856;6.076;2023-04-12T10:58:09;6.32;;;1.58;;
37593;SDS011;23441;50.856;6.076;2023-04-12T11:03:20;4.43;;;1.30;;
37593;SDS011;23441;50.856;6.076;2023-04-12T11:06:02;5.65;;;1.70;;
37593;SDS011;23441;50.856;6.076;2023-04-12T11:08:28;5.28;;;1.63;;
37593;SDS011;23441;50.856;6.076;2023-04-12T11:10:59;5.35;;;1.52;;
37593;SDS011;23441;50.856;6.076;2023-04-12T11:13:33;4.70;;;1.77;;
37593;SDS011;23441;50.856;6.076;2023-04-12T11:16:00;7.30;;;1.30;;
37593;SDS011;23441;50.856;6.076;2023-04-12T11:18:27;10.45;;;1.95;;
37593;SDS011;23441;50.856;6.076;2023-04-12T11:20:53;7.25;;;2.05;;
37593;SDS011;23441;50.856;6.076;2023-04-12T11:23:20;12.40;;;2.88;;
37593;SDS011;23441;50.856;6.076;2023-04-12T11:25:50;8.85;;;2.13;;
37593;SDS011;23441;50.856;6.076;2023-04-12T11:28:19;8.65;;;2.08;;
37593;SDS011;23441;50.856;6.076;2023-04-12T11:30:54;8.10;;;1.80;;
37593;SDS011;23441;50.856;6.076;2023-04-12T11:33:33;9.85;;;1.90;;
37593;SDS011;23441;50.856;6.076;2023-04-12T11:36:04;10.68;;;2.13;;
37593;SDS011;23441;50.856;6.076;2023-04-12T11:38:31;11.63;;;2.53;;
37593;SDS011;23441;50.856;6.076;2023-04-12T11:40:58;15.63;;;2.83;;
37593;SDS011;23441;50.856;6.076;2023-04-12T11:43:24;11.60;;;2.80;;
37593;SDS011;23441;50.856;6.076;2023-04-12T11:45:59;9.98;;;2.25;;
37593;SDS011;23441;50.856;6.076;2023-04-12T11:48:25;8.43;;;1.88;;
37593;SDS011;23441;50.856;6.076;2023-04-12T11:50:52;10.43;;;2.03;;
37593;SDS011;23441;50.856;6.076;2023-04-12T11:53:17;7.60;;;1.80;;
37593;SDS011;23441;50.856;6.076;2023-04-12T11:55:47;10.65;;;2.33;;
37593;SDS011;23441;50.856;6.076;2023-04-12T11:58:14;13.75;;;2.50;;
37593;SDS011;23441;50.856;6.076;2023-04-12T12:00:46;8.65;;;2.20;;
37593;SDS011;23441;50.856;6.076;2023-04-12T12:03:12;14.80;;;2.47;;
37593;SDS011;23441;50.856;6.076;2023-04-12T12:05:37;14.38;;;2.50;;
37593;SDS011;23441;50.856;6.076;2023-04-12T12:08:05;12.50;;;2.85;;
37593;SDS011;23441;50.856;6.076;2023-04-12T12:10:38;12.77;;;2.88;;
37593;SDS011;23441;50.856;6.076;2023-04-12T12:13:11;14.82;;;2.72;;
37593;SDS011;23441;50.856;6.076;2023-04-12T12:15:38;16.15;;;2.70;;
37593;SDS011;23441;50.856;6.076;2023-04-12T12:18:07;13.95;;;2.53;;
37593;SDS011;23441;50.856;6.076;2023-04-12T12:20:48;15.30;;;2.50;;
37593;SDS011;23441;50.856;6.076;2023-04-12T12:23:30;12.35;;;2.75;;
37593;SDS011;23441;50.856;6.076;2023-04-12T12:25:57;9.40;;;2.22;;
37593;SDS011;23441;50.856;6.076;2023-04-12T12:28:23;19.02;;;3.33;;
37593;SDS011;23441;50.856;6.076;2023-04-12T12:30:52;15.65;;;2.65;;
37593;SDS011;23441;50.856;6.076;2023-04-12T12:33:21;13.30;;;2.50;;
37593;SDS011;23441;50.856;6.076;2023-04-12T12:35:46;10.30;;;2.72;;
37593;SDS011;23441;50.856;6.076;2023-04-12T12:38:19;11.82;;;2.88;;
37593;SDS011;23441;50.856;6.076;2023-04-12T12:41:17;11.10;;;2.28;;
37593;SDS011;23441;50.856;6.076;2023-04-12T12:43:45;11.85;;;2.90;;
37593;SDS011;23441;50.856;6.076;2023-04-12T12:46:12;14.80;;;3.47;;
37593;SDS011;23441;50.856;6.076;2023-04-12T12:48:38;13.80;;;2.63;;
37593;SDS011;23441;50.856;6.076;2023-04-12T12:51:07;13.73;;;3.05;;
37593;SDS011;23441;50.856;6.076;2023-04-12T12:53:37;14.02;;;2.70;;
37593;SDS011;23441;50.856;6.076;2023-04-12T12:56:04;14.35;;;2.65;;
37593;SDS011;23441;50.856;6.076;2023-04-12T12:58:31;11.65;;;2.40;;
37593;SDS011;23441;50.856;6.076;2023-04-12T13:00:58;15.65;;;3.10;;
37593;SDS011;23441;50.856;6.076;2023-04-12T13:03:24;9.45;;;2.17;;
37593;SDS011;23441;50.856;6.076;2023-04-12T13:05:49;6.75;;;1.70;;
37593;SDS011;23441;50.856;6.076;2023-04-12T13:08:15;11.77;;;2.67;;
37593;SDS011;23441;50.856;6.076;2023-04-12T13:10:41;7.10;;;2.03;;
37593;SDS011;23441;50.856;6.076;2023-04-12T13:13:07;6.97;;;2.03;;
37593;SDS011;23441;50.856;6.076;2023-04-12T13:15:33;12.35;;;2.47;;
37593;SDS011;23441;50.856;6.076;2023-04-12T13:17:58;10.48;;;2.50;;
37593;SDS011;23441;50.856;6.076;2023-04-12T13:20:24;11.10;;;2.47;;
37593;SDS011;23441;50.856;6.076;2023-04-12T13:22:51;8.90;;;2.55;;
37593;SDS011;23441;50.856;6.076;2023-04-12T13:25:17;9.73;;;2.30;;
37593;SDS011;23441;50.856;6.076;2023-04-12T13:27:44;7.45;;;2.25;;
37593;SDS011;23441;50.856;6.076;2023-04-12T13:30:10;6.68;;;2.25;;
37593;SDS011;23441;50.856;6.076;2023-04-12T13:32:36;6.32;;;1.98;;
37593;SDS011;23441;50.856;6.076;2023-04-12T13:35:02;6.80;;;1.83;;
37593;SDS011;23441;50.856;6.076;2023-04-12T13:37:28;9.90;;;2.15;;
37593;SDS011;23441;50.856;6.076;2023-04-12T13:39:54;11.88;;;3.03;;
37593;SDS011;23441;50.856;6.076;2023-04-12T13:42:20;5.32;;;1.95;;
37593;SDS011;23441;50.856;6.076;2023-04-12T13:44:46;7.50;;;1.98;;
37593;SDS011;23441;50.856;6.076;2023-04-12T13:47:12;9.07;;;2.55;;
37593;SDS011;23441;50.856;6.076;2023-04-12T13:49:39;8.77;;;2.42;;
37593;SDS011;23441;50.856;6.076;2023-04-12T13:52:05;5.57;;;1.85;;
37593;SDS011;23441;50.856;6.076;2023-04-12T13:54:31;7.43;;;2.10;;
37593;SDS011;23441;50.856;6.076;2023-04-12T13:56:57;5.07;;;1.73;;
37593;SDS011;23441;50.856;6.076;2023-04-12T13:59:23;6.60;;;1.55;;
37593;SDS011;23441;50.856;6.076;2023-04-12T14:01:51;8.05;;;2.42;;
37593;SDS011;23441;50.856;6.076;2023-04-12T14:04:17;3.65;;;1.50;;
37593;SDS011;23441;50.856;6.076;2023-04-12T14:06:43;9.90;;;1.95;;
37593;SDS011;23441;50.856;6.076;2023-04-12T14:09:21;6.72;;;2.13;;
37593;SDS011;23441;50.856;6.076;2023-04-12T14:11:48;6.35;;;2.03;;
37593;SDS011;23441;50.856;6.076;2023-04-12T14:14:13;7.63;;;2.00;;
37593;SDS011;23441;50.856;6.076;2023-04-12T14:16:39;10.45;;;2.25;;
37593;SDS011;23441;50.856;6.076;2023-04-12T14:19:05;4.90;;;1.33;;
37593;SDS011;23441;50.856;6.076;2023-04-12T14:21:31;3.80;;;2.17;;
37593;SDS011;23441;50.856;6.076;2023-04-12T14:23:56;2.38;;;1.27;;
37593;SDS011;23441;50.856;6.076;2023-04-12T14:26:22;5.32;;;0.93;;
37593;SDS011;23441;50.856;6.076;2023-04-12T14:28:48;4.60;;;1.17;;
37593;SDS011;23441;50.856;6.076;2023-04-12T14:31:17;2.95;;;1.23;;
37593;SDS011;23441;50.856;6.076;2023-04-12T14:33:42;2.38;;;0.80;;
37593;SDS011;23441;50.856;6.076;2023-04-12T14:36:08;2.72;;;1.10;;
37593;SDS011;23441;50.856;6.076;2023-04-12T14:38:34;3.10;;;1.20;;
37593;SDS011;23441;50.856;6.076;2023-04-12T14:41:00;3.70;;;1.80;;
37593;SDS011;23441;50.856;6.076;2023-04-12T14:43:30;3.35;;;1.23;;
37593;SDS011;23441;50.856;6.076;2023-04-12T14:45:56;3.97;;;1.48;;
37593;SDS011;23441;50.856;6.076;2023-04-12T14:48:22;3.30;;;0.95;;
37593;SDS011;23441;50.856;6.076;2023-04-12T14:50:47;7.20;;;1.60;;
37593;SDS011;23441;50.856;6.076;2023-04-12T14:53:13;6.35;;;1.50;;
37593;SDS011;23441;50.856;6.076;2023-04-12T14:55:40;5.05;;;1.42;;
37593;SDS011;23441;50.856;6.076;2023-04-12T14:58:06;2.95;;;1.25;;
37593;SDS011;23441;50.856;6.076;2023-04-12T15:00:34;4.03;;;1.30;;
37593;SDS011;23441;50.856;6.076;2023-04-12T15:03:00;2.65;;;1.27;;
37593;SDS011;23441;50.856;6.076;2023-04-12T15:05:26;3.72;;;1.10;;
37593;SDS011;23441;50.856;6.076;2023-04-12T15:07:52;2.78;;;1.10;;
37593;SDS011;23441;50.856;6.076;2023-04-12T15:10:18;2.55;;;0.93;;